createdAt,value
2022-12-29T00:00:19.499Z,2.10
2022-12-29T00:02:46.186Z,3.12
2022-12-29T00:05:12.832Z,3.35
2022-12-29T00:07:39.483Z,1.30
2022-12-29T00:10:07.165Z,2.64
2022-12-29T00:12:53.697Z,-0.44
2022-12-29T00:15:38.594Z,2.78
2022-12-29T00:18:05.297Z,1.53
2022-12-29T00:20:53.153Z,3.09
2022-12-29T00:23:39.038Z,0.08
2022-12-29T00:26:42.644Z,2.92
2022-12-29T00:29:29.356Z,0.31
2022-12-29T00:32:14.763Z,2.40
2022-12-29T00:35:00.159Z,1.57
2022-12-29T00:37:46.727Z,2.50
2022-12-29T00:40:32.055Z,2.48
2022-12-29T00:43:17.414Z,0.93
2022-12-29T00:45:45.973Z,2.70
2022-12-29T00:48:12.672Z,1.94
2022-12-29T00:50:39.190Z,3.07
2022-12-29T00:53:05.697Z,3.15
2022-12-29T00:55:32.235Z,1.99
2022-12-29T00:57:59.344Z,-0.26
2022-12-29T01:00:26.142Z,2.43
2022-12-29T01:02:54.171Z,2.08
2022-12-29T01:05:20.797Z,2.61
2022-12-29T01:07:47.374Z,2.98
2022-12-29T01:10:15.685Z,2.99
2022-12-29T01:12:42.318Z,3.13
2022-12-29T01:15:12.023Z,3.27
2022-12-29T01:17:38.430Z,1.80
2022-12-29T01:20:07.561Z,2.36
2022-12-29T01:22:34.129Z,1.23
2022-12-29T01:25:00.716Z,2.43
2022-12-29T01:27:27.286Z,3.07
2022-12-29T01:29:53.862Z,2.09
2022-12-29T01:32:20.481Z,2.99
2022-12-29T01:34:47.100Z,3.16
2022-12-29T01:37:15.168Z,3.20
2022-12-29T01:39:41.743Z,2.23
2022-12-29T01:42:16.825Z,3.08
2022-12-29T01:45:03.496Z,1.11
2022-12-29T01:47:35.808Z,2.43
2022-12-29T01:50:08.159Z,3.01
2022-12-29T01:52:41.702Z,0.92
2022-12-29T01:55:11.737Z,-0.99
2022-12-29T01:57:41.312Z,2.22
2022-12-29T02:00:10.603Z,0.67
2022-12-29T02:02:38.429Z,-0.10
2022-12-29T02:05:12.249Z,-1.23
2022-12-29T02:07:40.702Z,0.78
2022-12-29T02:10:07.946Z,0.45
2022-12-29T02:12:34.756Z,2.38
2022-12-29T02:15:02.966Z,2.61
2022-12-29T02:17:46.618Z,2.80
2022-12-29T02:20:38.797Z,-0.31
2022-12-29T02:23:29.688Z,1.77
2022-12-29T02:26:17.103Z,2.45
2022-12-29T02:29:02.435Z,2.63
2022-12-29T02:31:39.574Z,0.84
2022-12-29T02:34:21.956Z,0.06
2022-12-29T02:37:01.858Z,2.10
2022-12-29T02:39:33.661Z,0.88
2022-12-29T02:42:10.821Z,1.68
2022-12-29T02:44:45.354Z,2.59
2022-12-29T02:47:22.816Z,2.59
2022-12-29T02:49:56.908Z,2.68
2022-12-29T02:52:28.718Z,0.55
2022-12-29T02:54:55.934Z,2.46
2022-12-29T02:57:34.404Z,2.79
2022-12-29T03:00:04.978Z,1.51
2022-12-29T03:02:46.166Z,-0.23
2022-12-29T03:05:24.111Z,1.67
2022-12-29T03:08:04.811Z,2.06
2022-12-29T03:10:42.347Z,1.10
2022-12-29T03:13:39.173Z,0.97
2022-12-29T03:16:15.465Z,2.47
2022-12-29T03:18:51.277Z,2.02
2022-12-29T03:21:45.443Z,2.23
2022-12-29T03:24:12.779Z,1.31
2022-12-29T03:26:41.376Z,1.33
2022-12-29T03:29:09.619Z,0.69
2022-12-29T03:31:38.255Z,1.47
2022-12-29T03:34:07.936Z,2.38
2022-12-29T03:36:38.811Z,2.55
2022-12-29T03:39:10.428Z,0.61
2022-12-29T03:41:37.863Z,1.68
2022-12-29T03:44:06.984Z,1.34
2022-12-29T03:46:33.845Z,1.84
2022-12-29T03:49:00.717Z,2.56
2022-12-29T03:51:28.636Z,2.65
2022-12-29T03:53:55.222Z,0.44
2022-12-29T03:56:21.787Z,2.12
2022-12-29T03:58:48.294Z,2.60
2022-12-29T04:01:14.926Z,1.52
2022-12-29T04:03:41.545Z,0.86
2022-12-29T04:06:08.736Z,1.50
2022-12-29T04:08:36.681Z,2.33
2022-12-29T04:11:03.228Z,0.41
2022-12-29T04:13:29.793Z,1.95
2022-12-29T04:15:56.375Z,0.80
2022-12-29T04:18:22.907Z,1.90
2022-12-29T04:21:01.753Z,2.45
2022-12-29T04:23:28.702Z,1.59
2022-12-29T04:25:56.749Z,0.29
2022-12-29T04:28:23.500Z,2.33
2022-12-29T04:30:50.165Z,2.50
2022-12-29T04:33:16.861Z,1.47
2022-12-29T04:35:46.012Z,0.68
2022-12-29T04:38:13.244Z,2.40
2022-12-29T04:40:42.391Z,1.13
2022-12-29T04:43:10.918Z,0.40
2022-12-29T04:45:38.492Z,0.95
2022-12-29T04:48:06.047Z,2.27
2022-12-29T04:50:32.578Z,0.11
2022-12-29T04:52:59.095Z,1.73
2022-12-29T04:55:25.601Z,1.76
2022-12-29T04:57:52.138Z,2.41
2022-12-29T05:00:20.293Z,2.57
2022-12-29T05:02:47.082Z,0.74
2022-12-29T05:05:13.851Z,1.27
2022-12-29T05:07:41.188Z,0.46
2022-12-29T05:10:08.953Z,2.26
2022-12-29T05:12:37.867Z,2.35
2022-12-29T05:15:05.908Z,2.29
2022-12-29T05:17:34.247Z,1.93
2022-12-29T05:20:00.835Z,0.58
2022-12-29T05:22:27.403Z,0.86
2022-12-29T05:24:53.969Z,1.74
2022-12-29T05:27:20.528Z,1.32
2022-12-29T05:29:47.081Z,2.38
2022-12-29T05:32:13.772Z,2.43
2022-12-29T05:34:42.634Z,2.51
2022-12-29T05:37:09.195Z,2.59
2022-12-29T05:39:35.728Z,1.31
2022-12-29T05:42:02.280Z,1.50
2022-12-29T05:44:28.900Z,2.12
2022-12-29T05:46:55.605Z,2.07
2022-12-29T05:49:22.212Z,1.38
2022-12-29T05:51:50.117Z,1.86
2022-12-29T05:54:16.926Z,2.19
2022-12-29T05:56:43.506Z,2.15
2022-12-29T05:59:10.049Z,1.61
2022-12-29T06:01:36.716Z,2.06
2022-12-29T06:04:03.626Z,2.28
2022-12-29T06:06:30.392Z,2.49
2022-12-29T06:08:58.503Z,2.35
2022-12-29T06:11:25.002Z,2.62
2022-12-29T06:13:51.534Z,2.64
2022-12-29T06:16:18.188Z,2.23
2022-12-29T06:18:44.813Z,2.58
2022-12-29T06:21:11.369Z,2.59
2022-12-29T06:23:37.951Z,2.61
2022-12-29T06:26:05.940Z,2.34
2022-12-29T06:28:32.649Z,2.51
2022-12-29T06:30:59.183Z,2.42
2022-12-29T06:33:25.727Z,1.51
2022-12-29T06:35:52.290Z,2.04
2022-12-29T06:38:18.866Z,1.69
2022-12-29T06:40:46.133Z,2.12
2022-12-29T06:43:14.227Z,2.51
2022-12-29T06:45:41.406Z,2.41
2022-12-29T06:48:08.484Z,2.58
2022-12-29T06:50:35.316Z,2.53
2022-12-29T06:53:01.890Z,2.46
2022-12-29T06:55:29.201Z,2.60
2022-12-29T06:57:56.476Z,1.41
2022-12-29T07:00:24.678Z,1.92
2022-12-29T07:02:51.400Z,2.49
2022-12-29T07:05:18.111Z,2.60
2022-12-29T07:07:44.780Z,2.61
2022-12-29T07:10:11.322Z,1.44
2022-12-29T07:12:37.811Z,1.06
2022-12-29T07:15:04.825Z,1.51
2022-12-29T07:17:32.672Z,2.37
2022-12-29T07:19:59.192Z,2.54
2022-12-29T07:22:25.693Z,2.65
2022-12-29T07:24:52.234Z,2.74
2022-12-29T07:27:18.810Z,2.70
2022-12-29T07:29:45.330Z,2.68
2022-12-29T07:32:11.840Z,1.93
2022-12-29T07:34:40.666Z,2.24
2022-12-29T07:37:07.678Z,2.60
2022-12-29T07:39:34.236Z,2.62
2022-12-29T07:42:04.815Z,2.61
2022-12-29T07:44:31.966Z,2.49
2022-12-29T07:46:59.000Z,2.12
2022-12-29T07:49:26.067Z,1.99
2022-12-29T07:51:54.300Z,2.49
2022-12-29T07:54:21.103Z,2.46
2022-12-29T07:56:47.629Z,2.46
2022-12-29T07:59:14.553Z,2.61
2022-12-29T08:01:41.430Z,2.64
2022-12-29T08:04:08.432Z,2.66
2022-12-29T08:06:35.552Z,2.66
2022-12-29T08:09:11.293Z,2.67
2022-12-29T08:11:41.294Z,2.67
2022-12-29T08:14:08.113Z,2.68
2022-12-29T08:16:34.717Z,2.73
2022-12-29T08:19:01.825Z,2.50
2022-12-29T08:21:29.486Z,2.76
2022-12-29T08:23:56.108Z,2.68
2022-12-29T08:26:24.189Z,2.70
2022-12-29T08:28:53.254Z,2.71
2022-12-29T08:31:19.877Z,2.70
2022-12-29T08:33:46.448Z,2.68
2022-12-29T08:36:12.998Z,2.74
2022-12-29T08:38:39.528Z,2.72
2022-12-29T08:41:06.173Z,2.74
2022-12-29T08:43:34.080Z,2.71
2022-12-29T08:46:00.946Z,2.76
2022-12-29T08:48:27.883Z,2.69
2022-12-29T08:50:54.729Z,2.75
2022-12-29T08:53:21.286Z,2.73
2022-12-29T08:55:48.658Z,2.78
2022-12-29T08:58:15.669Z,2.76
2022-12-29T09:00:43.607Z,2.76
2022-12-29T09:03:10.549Z,3.11
2022-12-29T09:05:37.651Z,2.82
2022-12-29T09:08:05.282Z,2.95
2022-12-29T09:10:31.864Z,2.94
2022-12-29T09:12:58.613Z,2.80
2022-12-29T09:15:25.157Z,2.84
2022-12-29T09:17:53.070Z,3.27
2022-12-29T09:20:20.199Z,3.60
2022-12-29T09:22:47.683Z,4.36
2022-12-29T09:25:15.124Z,4.44
2022-12-29T09:27:41.843Z,3.74
2022-12-29T09:30:11.005Z,3.08
2022-12-29T09:32:43.664Z,3.04
2022-12-29T09:35:12.625Z,2.95
2022-12-29T09:37:39.432Z,2.96
2022-12-29T09:40:07.505Z,2.95
2022-12-29T09:42:40.270Z,3.33
2022-12-29T09:45:15.018Z,6.89
2022-12-29T09:47:43.579Z,4.90
2022-12-29T09:50:20.922Z,3.36
2022-12-29T09:52:52.129Z,4.68
2022-12-29T09:55:22.024Z,7.44
2022-12-29T09:57:54.487Z,5.00
2022-12-29T10:00:23.352Z,3.57
2022-12-29T10:02:56.080Z,6.26
2022-12-29T10:05:34.940Z,5.71
2022-12-29T10:08:17.750Z,4.14
2022-12-29T10:10:52.872Z,3.41
2022-12-29T10:13:32.467Z,3.24
2022-12-29T10:16:06.503Z,3.22
2022-12-29T10:18:48.895Z,3.19
2022-12-29T10:21:28.401Z,3.23
2022-12-29T10:23:55.970Z,5.47
2022-12-29T10:26:27.392Z,7.52
2022-12-29T10:28:57.905Z,7.72
2022-12-29T10:31:36.881Z,7.88
2022-12-29T10:34:14.944Z,8.34
2022-12-29T10:36:48.268Z,8.53
2022-12-29T10:39:21.143Z,8.44
2022-12-29T10:41:51.413Z,8.15
2022-12-29T10:44:20.398Z,8.25
2022-12-29T10:46:55.149Z,7.73
2022-12-29T10:49:22.640Z,7.95
2022-12-29T10:51:52.947Z,6.94
2022-12-29T10:54:24.476Z,5.20
2022-12-29T10:56:53.916Z,4.29
2022-12-29T10:59:23.814Z,4.05
2022-12-29T11:01:59.151Z,4.03
2022-12-29T11:04:44.083Z,6.54
2022-12-29T11:07:16.126Z,5.78
2022-12-29T11:09:44.723Z,5.21
2022-12-29T11:12:23.530Z,4.61
2022-12-29T11:15:03.267Z,6.93
2022-12-29T11:17:29.712Z,4.82
2022-12-29T11:19:56.273Z,5.81
2022-12-29T11:22:27.923Z,7.12
2022-12-29T11:25:05.486Z,5.68
2022-12-29T11:27:33.832Z,5.52
2022-12-29T11:30:00.418Z,6.92
2022-12-29T11:32:29.427Z,4.44
2022-12-29T11:34:58.367Z,4.08
2022-12-29T11:37:30.524Z,4.07
2022-12-29T11:40:00.311Z,4.10
2022-12-29T11:42:34.289Z,4.00
2022-12-29T11:45:10.923Z,4.12
2022-12-29T11:47:37.972Z,4.01
2022-12-29T11:50:07.773Z,4.10
2022-12-29T11:52:40.325Z,4.16
2022-12-29T11:55:19.473Z,5.23
2022-12-29T11:57:46.625Z,6.25
2022-12-29T12:00:18.299Z,5.72
2022-12-29T12:02:54.449Z,6.64
2022-12-29T12:05:32.818Z,5.88
2022-12-29T12:08:10.270Z,6.32
2022-12-29T12:10:45.676Z,4.96
2022-12-29T12:13:20.760Z,5.20
2022-12-29T12:15:56.627Z,5.21
2022-12-29T12:18:33.191Z,5.95
2022-12-29T12:21:06.332Z,6.35
2022-12-29T12:23:45.711Z,6.06
2022-12-29T12:26:14.643Z,6.88
2022-12-29T12:28:52.298Z,7.65
2022-12-29T12:31:27.997Z,5.89
2022-12-29T12:34:01.036Z,7.78
2022-12-29T12:36:47.526Z,6.87
2022-12-29T12:39:26.604Z,7.23
2022-12-29T12:42:05.847Z,6.62
2022-12-29T12:44:42.783Z,7.94
2022-12-29T12:47:21.614Z,7.02
2022-12-29T12:50:09.307Z,7.87
2022-12-29T12:52:47.976Z,8.21
2022-12-29T12:55:37.426Z,7.88
2022-12-29T12:58:12.945Z,7.28
2022-12-29T13:00:51.556Z,7.63
2022-12-29T13:03:28.108Z,7.13
2022-12-29T13:06:12.418Z,7.48
2022-12-29T13:09:01.277Z,8.28
2022-12-29T13:11:44.508Z,8.21
2022-12-29T13:14:22.828Z,8.05
2022-12-29T13:16:57.197Z,7.48
2022-12-29T13:19:32.251Z,7.97
2022-12-29T13:22:07.908Z,7.14
2022-12-29T13:24:43.781Z,6.39
2022-12-29T13:27:17.124Z,6.49
2022-12-29T13:29:51.486Z,7.54
2022-12-29T13:32:33.257Z,7.54
2022-12-29T13:35:15.946Z,6.15
2022-12-29T13:37:50.391Z,5.28
2022-12-29T13:40:19.292Z,5.19
2022-12-29T13:42:47.943Z,5.13
2022-12-29T13:45:17.598Z,5.10
2022-12-29T13:47:49.635Z,5.46
2022-12-29T13:50:19.531Z,7.86
2022-12-29T13:52:52.496Z,7.07
2022-12-29T13:55:26.026Z,5.66
2022-12-29T13:58:03.793Z,5.33
2022-12-29T14:00:39.586Z,5.27
2022-12-29T14:03:30.041Z,5.25
2022-12-29T14:06:17.144Z,6.28
2022-12-29T14:08:46.936Z,7.08
2022-12-29T14:11:15.585Z,7.04
2022-12-29T14:13:46.114Z,5.97
2022-12-29T14:16:30.186Z,5.55
2022-12-29T14:19:04.521Z,5.41
2022-12-29T14:21:31.480Z,5.37
2022-12-29T14:24:36.896Z,5.35
2022-12-29T14:27:44.971Z,6.38
2022-12-29T14:30:49.518Z,5.97
2022-12-29T14:33:18.697Z,5.52
2022-12-29T14:35:53.388Z,5.49
2022-12-29T14:38:25.735Z,5.52
2022-12-29T14:40:53.463Z,5.58
2022-12-29T14:43:26.076Z,5.47
2022-12-29T14:46:00.819Z,5.69
2022-12-29T14:48:34.427Z,5.88
2022-12-29T14:51:01.967Z,5.62
2022-12-29T14:53:50.530Z,5.53
2022-12-29T14:56:19.552Z,5.69
2022-12-29T14:58:51.268Z,5.65
2022-12-29T15:01:21.667Z,5.71
2022-12-29T15:03:52.741Z,5.57
2022-12-29T15:06:23.106Z,5.78
2022-12-29T15:08:54.181Z,5.38
2022-12-29T15:11:23.554Z,5.52
2022-12-29T15:13:51.226Z,5.53
2022-12-29T15:16:26.247Z,5.52
2022-12-29T15:18:54.648Z,5.69
2022-12-29T15:21:25.349Z,5.68
2022-12-29T15:23:52.084Z,5.59
2022-12-29T15:26:23.332Z,5.73
2022-12-29T15:28:51.716Z,5.77
2022-12-29T15:31:26.220Z,5.47
2022-12-29T15:34:08.993Z,5.74
2022-12-29T15:36:39.328Z,5.89
2022-12-29T15:39:19.931Z,5.78
2022-12-29T15:42:00.859Z,5.68
2022-12-29T15:44:33.246Z,4.78
2022-12-29T15:47:03.471Z,5.00
2022-12-29T15:49:32.577Z,5.48
2022-12-29T15:51:59.640Z,5.82
2022-12-29T15:54:31.015Z,5.86
2022-12-29T15:56:57.591Z,5.45
2022-12-29T15:59:25.963Z,5.60
2022-12-29T16:01:54.196Z,5.87
2022-12-29T16:04:21.463Z,5.99
2022-12-29T16:06:57.953Z,5.90
2022-12-29T16:09:32.116Z,5.62
2022-12-29T16:12:02.748Z,5.79
2022-12-29T16:14:33.880Z,5.93
2022-12-29T16:17:04.858Z,5.97
2022-12-29T16:19:36.393Z,4.66
2022-12-29T16:22:11.975Z,5.40
2022-12-29T16:24:41.160Z,5.82
2022-12-29T16:27:10.836Z,5.82
2022-12-29T16:29:37.905Z,5.48
2022-12-29T16:32:25.281Z,4.93
2022-12-29T16:35:11.378Z,5.84
2022-12-29T16:37:40.279Z,6.01
2022-12-29T16:40:27.099Z,5.97
2022-12-29T16:42:57.548Z,5.95
2022-12-29T16:46:05.517Z,4.90
2022-12-29T16:48:36.321Z,5.02
2022-12-29T16:51:06.122Z,5.70
2022-12-29T16:53:36.844Z,5.99
2022-12-29T16:56:09.682Z,6.05
2022-12-29T16:58:36.663Z,5.95
2022-12-29T17:01:06.897Z,5.94
2022-12-29T17:03:39.884Z,5.96
2022-12-29T17:06:07.399Z,5.61
2022-12-29T17:08:42.680Z,4.75
2022-12-29T17:11:40.489Z,5.38
2022-12-29T17:14:19.553Z,5.65
2022-12-29T17:16:46.529Z,5.10
2022-12-29T17:19:17.339Z,5.61
2022-12-29T17:21:43.879Z,5.83
2022-12-29T17:24:16.268Z,4.87
2022-12-29T17:26:43.075Z,4.21
2022-12-29T17:29:17.139Z,5.55
2022-12-29T17:31:43.821Z,5.82
2022-12-29T17:34:12.458Z,4.99
2022-12-29T17:36:38.951Z,5.65
2022-12-29T17:39:06.176Z,5.90
2022-12-29T17:41:36.706Z,5.93
2022-12-29T17:44:03.285Z,5.85
2022-12-29T17:46:29.837Z,5.86
2022-12-29T17:48:56.542Z,5.95
2022-12-29T17:51:23.239Z,6.01
2022-12-29T17:53:51.925Z,5.95
2022-12-29T17:56:18.563Z,6.00
2022-12-29T17:58:47.842Z,6.08
2022-12-29T18:01:14.532Z,6.11
2022-12-29T18:03:41.408Z,6.09
2022-12-29T18:06:08.630Z,5.68
2022-12-29T18:08:35.620Z,5.49
2022-12-29T18:11:02.505Z,5.83
2022-12-29T18:13:43.591Z,5.94
2022-12-29T18:16:14.682Z,5.98
2022-12-29T18:18:41.405Z,5.96
2022-12-29T18:21:15.695Z,5.95
2022-12-29T18:23:42.350Z,5.95
2022-12-29T18:26:15.513Z,5.95
2022-12-29T18:28:43.287Z,5.93
2022-12-29T18:31:19.218Z,5.95
2022-12-29T18:33:46.109Z,5.98
2022-12-29T18:36:13.241Z,5.98
2022-12-29T18:38:40.242Z,5.97
2022-12-29T18:41:13.412Z,5.96
2022-12-29T18:43:39.937Z,5.00
2022-12-29T18:46:06.617Z,4.29
2022-12-29T18:48:34.586Z,5.53
2022-12-29T18:51:01.143Z,5.78
2022-12-29T18:53:27.800Z,5.89
2022-12-29T18:55:55.130Z,5.95
2022-12-29T18:58:21.648Z,5.96
2022-12-29T19:00:48.310Z,5.58
2022-12-29T19:03:16.964Z,5.48
2022-12-29T19:05:46.628Z,5.82
2022-12-29T19:08:13.341Z,5.64
2022-12-29T19:10:41.896Z,5.74
2022-12-29T19:13:16.475Z,4.96
2022-12-29T19:15:43.595Z,5.37
2022-12-29T19:21:08.139Z,5.83
2022-12-29T19:23:34.715Z,5.86
2022-12-29T19:26:01.309Z,5.87
2022-12-29T19:28:28.439Z,5.90
2022-12-29T19:30:59.709Z,5.85
2022-12-29T19:33:27.132Z,4.63
2022-12-29T19:35:59.458Z,5.75
2022-12-29T19:38:27.401Z,5.83
2022-12-29T19:40:53.966Z,5.80
2022-12-29T19:43:20.683Z,5.74
2022-12-29T19:45:47.369Z,4.95
2022-12-29T19:48:15.921Z,4.64
2022-12-29T19:50:43.560Z,5.15
2022-12-29T19:53:10.793Z,4.84
2022-12-29T19:55:41.727Z,5.60
2022-12-29T19:58:08.287Z,5.67
2022-12-29T20:00:34.915Z,5.44
2022-12-29T20:03:01.652Z,5.67
2022-12-29T20:05:28.284Z,5.72
2022-12-29T20:07:54.795Z,5.73
2022-12-29T20:10:21.344Z,5.76
2022-12-29T20:12:49.183Z,5.77
2022-12-29T20:15:15.720Z,5.78
2022-12-29T20:20:28.911Z,5.77
2022-12-29T20:22:55.645Z,5.76
2022-12-29T20:28:10.081Z,5.77
2022-12-29T20:30:36.774Z,5.69
2022-12-29T20:33:07.783Z,5.76
2022-12-29T20:35:35.144Z,5.81
2022-12-29T20:38:01.770Z,5.80
2022-12-29T20:40:28.349Z,5.77
2022-12-29T20:42:54.952Z,5.80
2022-12-29T20:45:22.821Z,5.84
2022-12-29T20:47:49.421Z,5.61
2022-12-29T20:50:16.041Z,5.76
2022-12-29T20:52:43.903Z,5.78
2022-12-29T20:55:10.518Z,5.80
2022-12-29T20:58:05.539Z,5.60
2022-12-29T21:00:25.685Z,5.78
2022-12-29T21:02:52.951Z,5.64
2022-12-29T21:05:24.388Z,5.47
2022-12-29T21:07:51.949Z,5.38
2022-12-29T21:10:18.794Z,5.71
2022-12-29T21:12:45.498Z,5.54
2022-12-29T21:15:14.970Z,5.56
2022-12-29T21:17:43.272Z,5.71
2022-12-29T21:20:20.011Z,5.76
2022-12-29T21:22:47.031Z,5.78
2022-12-29T21:25:14.083Z,5.65
2022-12-29T21:27:44.229Z,5.51
2022-12-29T21:30:11.588Z,4.27
2022-12-29T21:32:38.330Z,5.41
2022-12-29T21:35:07.994Z,5.64
2022-12-29T21:37:35.242Z,4.91
2022-12-29T21:40:02.343Z,5.56
2022-12-29T21:42:28.850Z,5.00
2022-12-29T21:45:19.922Z,4.26
2022-12-29T21:48:05.972Z,4.53
2022-12-29T21:50:36.608Z,5.57
2022-12-29T21:53:03.152Z,5.46
2022-12-29T21:55:29.656Z,5.63
2022-12-29T21:58:15.000Z,4.52
2022-12-29T22:01:00.508Z,3.96
2022-12-29T22:03:45.556Z,5.27
2022-12-29T22:06:32.044Z,5.49
2022-12-29T22:09:17.462Z,5.22
2022-12-29T22:12:02.805Z,5.35
2022-12-29T22:14:29.361Z,5.54
2022-12-29T22:16:55.928Z,5.62
2022-12-29T22:19:22.515Z,5.21
2022-12-29T22:21:50.422Z,5.34
2022-12-29T22:24:17.252Z,4.72
2022-12-29T22:26:43.805Z,5.31
2022-12-29T22:29:10.394Z,5.57
2022-12-29T22:31:36.996Z,5.61
2022-12-29T22:34:04.501Z,5.26
2022-12-29T22:36:32.267Z,5.53
2022-12-29T22:39:00.302Z,5.61
2022-12-29T22:41:26.907Z,5.63
2022-12-29T22:43:53.542Z,5.65
2022-12-29T22:46:20.193Z,5.66
2022-12-29T22:48:46.922Z,4.58
2022-12-29T22:51:13.850Z,5.46
2022-12-29T22:53:41.244Z,5.60
2022-12-29T22:56:11.236Z,5.62
2022-12-29T22:58:39.922Z,5.64
2022-12-29T23:01:06.600Z,5.66
2022-12-29T23:03:33.318Z,5.67
2022-12-29T23:06:01.828Z,5.65
2022-12-29T23:08:31.190Z,5.67
2022-12-29T23:10:57.870Z,5.66
2022-12-29T23:13:26.055Z,5.67
2022-12-29T23:15:52.702Z,5.43
2022-12-29T23:18:19.308Z,5.26
2022-12-29T23:20:48.263Z,5.53
2022-12-29T23:23:15.398Z,5.60
2022-12-29T23:25:41.937Z,4.49
2022-12-29T23:28:08.902Z,5.13
2022-12-29T23:30:36.842Z,5.48
2022-12-29T23:33:03.436Z,5.58
2022-12-29T23:35:30.016Z,5.61
2022-12-29T23:37:57.043Z,5.61
2022-12-29T23:40:23.568Z,5.63
2022-12-29T23:42:50.098Z,5.65
2022-12-29T23:45:16.733Z,5.59
2022-12-29T23:47:44.609Z,5.61
2022-12-29T23:50:11.188Z,5.61
2022-12-29T23:52:37.819Z,5.17
2022-12-29T23:55:05.042Z,5.54
2022-12-29T23:57:31.854Z,3.75
2022-12-29T23:59:58.384Z,5.12
